sensor_id;sensor_type;location;lat;lon;timestamp;temperature;humidity
66722;SHT31;53633;49.932;10.884;2022-10-16T00:00:35;15.79;94.30
66722;SHT31;53633;49.932;10.884;2022-10-16T00:03:03;15.62;95.21
66722;SHT31;53633;49.932;10.884;2022-10-16T00:05:29;15.61;95.45
66722;SHT31;53633;49.932;10.884;2022-10-16T00:07:56;15.48;95.81
66722;SHT31;53633;49.932;10.884;2022-10-16T00:10:24;15.55;95.69
66722;SHT31;53633;49.932;10.884;2022-10-16T00:12:50;15.52;95.68
66722;SHT31;53633;49.932;10.884;2022-10-16T00:15:17;15.51;95.49
66722;SHT31;53633;49.932;10.884;2022-10-16T00:17:44;15.48;95.64
66722;SHT31;53633;49.932;10.884;2022-10-16T00:20:10;15.44;95.87
66722;SHT31;53633;49.932;10.884;2022-10-16T00:22:37;15.44;95.82
66722;SHT31;53633;49.932;10.884;2022-10-16T00:25:04;15.42;95.70
66722;SHT31;53633;49.932;10.884;2022-10-16T00:27:32;15.35;95.79
66722;SHT31;53633;49.932;10.884;2022-10-16T00:29:59;15.39;95.70
66722;SHT31;53633;49.932;10.884;2022-10-16T00:32:26;15.45;95.31
66722;SHT31;53633;49.932;10.884;2022-10-16T00:34:53;15.38;95.26
66722;SHT31;53633;49.932;10.884;2022-10-16T00:37:19;15.36;95.10
66722;SHT31;53633;49.932;10.884;2022-10-16T00:39:46;15.36;94.89
66722;SHT31;53633;49.932;10.884;2022-10-16T00:42:15;15.31;95.38
66722;SHT31;53633;49.932;10.884;2022-10-16T00:44:47;15.27;95.36
66722;SHT31;53633;49.932;10.884;2022-10-16T00:47:19;15.16;95.62
66722;SHT31;53633;49.932;10.884;2022-10-16T00:49:47;15.16;95.82
66722;SHT31;53633;49.932;10.884;2022-10-16T00:52:14;15.08;95.84
66722;SHT31;53633;49.932;10.884;2022-10-16T00:54:41;15.10;95.54
66722;SHT31;53633;49.932;10.884;2022-10-16T00:57:08;15.10;95.52
66722;SHT31;53633;49.932;10.884;2022-10-16T00:59:37;15.01;95.61
66722;SHT31;53633;49.932;10.884;2022-10-16T01:02:07;15.06;95.46
66722;SHT31;53633;49.932;10.884;2022-10-16T01:04:36;15.16;95.23
66722;SHT31;53633;49.932;10.884;2022-10-16T01:07:09;15.11;95.35
66722;SHT31;53633;49.932;10.884;2022-10-16T01:09:43;15.16;95.27
66722;SHT31;53633;49.932;10.884;2022-10-16T01:12:16;15.12;95.32
66722;SHT31;53633;49.932;10.884;2022-10-16T01:14:48;15.16;95.18
66722;SHT31;53633;49.932;10.884;2022-10-16T01:17:21;15.20;95.34
66722;SHT31;53633;49.932;10.884;2022-10-16T01:20:05;15.17;95.47
66722;SHT31;53633;49.932;10.884;2022-10-16T01:22:39;15.23;95.18
66722;SHT31;53633;49.932;10.884;2022-10-16T01:25:12;15.23;95.00
66722;SHT31;53633;49.932;10.884;2022-10-16T01:27:45;15.25;95.10
66722;SHT31;53633;49.932;10.884;2022-10-16T01:30:16;15.24;95.43
66722;SHT31;53633;49.932;10.884;2022-10-16T01:32:48;15.25;95.23
66722;SHT31;53633;49.932;10.884;2022-10-16T01:35:19;15.24;95.28
66722;SHT31;53633;49.932;10.884;2022-10-16T01:37:52;15.30;95.19
66722;SHT31;53633;49.932;10.884;2022-10-16T01:40:21;15.31;95.15
66722;SHT31;53633;49.932;10.884;2022-10-16T01:42:55;15.30;95.05
66722;SHT31;53633;49.932;10.884;2022-10-16T01:45:22;15.32;95.05
66722;SHT31;53633;49.932;10.884;2022-10-16T01:47:49;15.46;94.49
66722;SHT31;53633;49.932;10.884;2022-10-16T01:50:19;15.49;94.62
66722;SHT31;53633;49.932;10.884;2022-10-16T01:52:48;15.54;94.26
66722;SHT31;53633;49.932;10.884;2022-10-16T01:55:19;15.61;94.14
66722;SHT31;53633;49.932;10.884;2022-10-16T01:57:49;15.72;93.20
66722;SHT31;53633;49.932;10.884;2022-10-16T02:00:19;15.75;93.31
66722;SHT31;53633;49.932;10.884;2022-10-16T02:02:49;15.70;93.15
66722;SHT31;53633;49.932;10.884;2022-10-16T02:05:21;15.82;92.77
66722;SHT31;53633;49.932;10.884;2022-10-16T02:07:49;15.78;92.92
66722;SHT31;53633;49.932;10.884;2022-10-16T02:10:16;15.87;92.66
66722;SHT31;53633;49.932;10.884;2022-10-16T02:12:46;15.79;92.91
66722;SHT31;53633;49.932;10.884;2022-10-16T02:15:14;15.72;93.09
66722;SHT31;53633;49.932;10.884;2022-10-16T02:17:42;15.56;93.66
66722;SHT31;53633;49.932;10.884;2022-10-16T02:20:09;15.52;93.94
66722;SHT31;53633;49.932;10.884;2022-10-16T02:22:39;15.52;93.97
66722;SHT31;53633;49.932;10.884;2022-10-16T02:25:10;15.51;94.29
66722;SHT31;53633;49.932;10.884;2022-10-16T02:27:41;15.54;94.13
66722;SHT31;53633;49.932;10.884;2022-10-16T02:30:14;15.61;93.66
66722;SHT31;53633;49.932;10.884;2022-10-16T02:32:46;15.58;93.84
66722;SHT31;53633;49.932;10.884;2022-10-16T02:35:15;15.52;94.14
66722;SHT31;53633;49.932;10.884;2022-10-16T02:37:44;15.51;94.03
66722;SHT31;53633;49.932;10.884;2022-10-16T02:40:12;15.58;93.75
66722;SHT31;53633;49.932;10.884;2022-10-16T02:42:40;15.70;92.99
66722;SHT31;53633;49.932;10.884;2022-10-16T02:45:08;15.65;93.58
66722;SHT31;53633;49.932;10.884;2022-10-16T02:47:35;15.62;94.15
66722;SHT31;53633;49.932;10.884;2022-10-16T02:50:04;15.52;94.16
66722;SHT31;53633;49.932;10.884;2022-10-16T02:52:31;15.59;94.07
66722;SHT31;53633;49.932;10.884;2022-10-16T02:54:57;15.59;94.34
66722;SHT31;53633;49.932;10.884;2022-10-16T02:57:24;15.69;93.43
66722;SHT31;53633;49.932;10.884;2022-10-16T02:59:51;15.62;93.97
66722;SHT31;53633;49.932;10.884;2022-10-16T03:02:17;15.67;93.61
66722;SHT31;53633;49.932;10.884;2022-10-16T03:04:44;15.79;92.74
66722;SHT31;53633;49.932;10.884;2022-10-16T03:07:12;15.76;92.72
66722;SHT31;53633;49.932;10.884;2022-10-16T03:09:39;15.75;92.94
66722;SHT31;53633;49.932;10.884;2022-10-16T03:12:05;15.97;92.08
66722;SHT31;53633;49.932;10.884;2022-10-16T03:14:32;15.86;92.76
66722;SHT31;53633;49.932;10.884;2022-10-16T03:16:58;15.79;93.24
66722;SHT31;53633;49.932;10.884;2022-10-16T03:19:25;15.75;93.08
66722;SHT31;53633;49.932;10.884;2022-10-16T03:21:51;15.72;93.24
66722;SHT31;53633;49.932;10.884;2022-10-16T03:24:19;15.63;93.92
66722;SHT31;53633;49.932;10.884;2022-10-16T03:26:46;15.65;93.40
66722;SHT31;53633;49.932;10.884;2022-10-16T03:29:15;15.69;93.61
66722;SHT31;53633;49.932;10.884;2022-10-16T03:31:41;15.76;93.27
66722;SHT31;53633;49.932;10.884;2022-10-16T03:34:08;15.81;92.56
66722;SHT31;53633;49.932;10.884;2022-10-16T03:36:34;15.67;93.16
66722;SHT31;53633;49.932;10.884;2022-10-16T03:39:05;15.58;93.83
66722;SHT31;53633;49.932;10.884;2022-10-16T03:41:33;15.55;93.80
66722;SHT31;53633;49.932;10.884;2022-10-16T03:44:00;15.51;94.15
66722;SHT31;53633;49.932;10.884;2022-10-16T03:46:26;15.52;93.93
66722;SHT31;53633;49.932;10.884;2022-10-16T03:48:55;15.63;93.21
66722;SHT31;53633;49.932;10.884;2022-10-16T03:51:21;15.56;93.87
66722;SHT31;53633;49.932;10.884;2022-10-16T03:53:48;15.51;93.92
66722;SHT31;53633;49.932;10.884;2022-10-16T03:56:14;15.52;94.22
66722;SHT31;53633;49.932;10.884;2022-10-16T03:58:42;15.54;94.27
66722;SHT31;53633;49.932;10.884;2022-10-16T04:01:09;15.54;94.25
66722;SHT31;53633;49.932;10.884;2022-10-16T04:03:36;15.54;94.28
66722;SHT31;53633;49.932;10.884;2022-10-16T04:06:02;15.56;94.12
66722;SHT31;53633;49.932;10.884;2022-10-16T04:08:29;15.54;94.39
66722;SHT31;53633;49.932;10.884;2022-10-16T04:10:55;15.55;94.09
66722;SHT31;53633;49.932;10.884;2022-10-16T04:13:22;15.62;93.99
66722;SHT31;53633;49.932;10.884;2022-10-16T04:15:50;15.62;93.84
66722;SHT31;53633;49.932;10.884;2022-10-16T04:18:16;15.66;93.56
66722;SHT31;53633;49.932;10.884;2022-10-16T04:20:43;15.66;93.61
66722;SHT31;53633;49.932;10.884;2022-10-16T04:23:09;15.56;94.07
66722;SHT31;53633;49.932;10.884;2022-10-16T04:25:36;15.52;94.14
66722;SHT31;53633;49.932;10.884;2022-10-16T04:28:03;15.49;94.04
66722;SHT31;53633;49.932;10.884;2022-10-16T04:30:29;15.46;94.43
66722;SHT31;53633;49.932;10.884;2022-10-16T04:32:57;15.48;94.35
66722;SHT31;53633;49.932;10.884;2022-10-16T04:35:24;15.51;94.16
66722;SHT31;53633;49.932;10.884;2022-10-16T04:37:50;15.54;93.89
66722;SHT31;53633;49.932;10.884;2022-10-16T04:40:17;15.49;94.16
66722;SHT31;53633;49.932;10.884;2022-10-16T04:42:43;15.44;94.29
66722;SHT31;53633;49.932;10.884;2022-10-16T04:45:10;15.41;94.32
66722;SHT31;53633;49.932;10.884;2022-10-16T04:47:42;15.45;94.13
66722;SHT31;53633;49.932;10.884;2022-10-16T04:50:10;15.42;94.34
66722;SHT31;53633;49.932;10.884;2022-10-16T04:52:37;15.42;94.21
66722;SHT31;53633;49.932;10.884;2022-10-16T04:55:04;15.44;94.29
66722;SHT31;53633;49.932;10.884;2022-10-16T04:57:31;15.41;94.40
66722;SHT31;53633;49.932;10.884;2022-10-16T04:59:58;15.38;94.35
66722;SHT31;53633;49.932;10.884;2022-10-16T05:02:24;15.36;94.41
66722;SHT31;53633;49.932;10.884;2022-10-16T05:04:51;15.41;94.27
66722;SHT31;53633;49.932;10.884;2022-10-16T05:07:20;15.34;94.51
66722;SHT31;53633;49.932;10.884;2022-10-16T05:09:46;15.36;94.41
66722;SHT31;53633;49.932;10.884;2022-10-16T05:12:13;15.35;94.43
66722;SHT31;53633;49.932;10.884;2022-10-16T05:14:39;15.30;94.68
66722;SHT31;53633;49.932;10.884;2022-10-16T05:17:06;15.27;94.85
66722;SHT31;53633;49.932;10.884;2022-10-16T05:19:33;15.30;94.70
66722;SHT31;53633;49.932;10.884;2022-10-16T05:21:59;15.35;94.37
66722;SHT31;53633;49.932;10.884;2022-10-16T05:24:27;15.41;94.38
66722;SHT31;53633;49.932;10.884;2022-10-16T05:26:54;15.34;94.56
66722;SHT31;53633;49.932;10.884;2022-10-16T05:29:20;15.31;94.76
66722;SHT31;53633;49.932;10.884;2022-10-16T05:31:50;15.27;94.67
66722;SHT31;53633;49.932;10.884;2022-10-16T05:34:16;15.27;94.73
66722;SHT31;53633;49.932;10.884;2022-10-16T05:36:43;15.28;94.84
66722;SHT31;53633;49.932;10.884;2022-10-16T05:39:09;15.35;94.55
66722;SHT31;53633;49.932;10.884;2022-10-16T05:41:37;15.35;94.51
66722;SHT31;53633;49.932;10.884;2022-10-16T05:44:04;15.32;94.73
66722;SHT31;53633;49.932;10.884;2022-10-16T05:46:31;15.30;94.67
66722;SHT31;53633;49.932;10.884;2022-10-16T05:48:58;15.25;94.99
66722;SHT31;53633;49.932;10.884;2022-10-16T05:51:24;15.25;94.90
66722;SHT31;53633;49.932;10.884;2022-10-16T05:53:51;15.27;94.99
66722;SHT31;53633;49.932;10.884;2022-10-16T05:56:18;15.28;94.84
66722;SHT31;53633;49.932;10.884;2022-10-16T05:58:46;15.30;94.75
66722;SHT31;53633;49.932;10.884;2022-10-16T06:01:14;15.38;94.41
66722;SHT31;53633;49.932;10.884;2022-10-16T06:03:42;15.36;94.31
66722;SHT31;53633;49.932;10.884;2022-10-16T06:06:10;15.30;94.80
66722;SHT31;53633;49.932;10.884;2022-10-16T06:08:38;15.44;94.15
66722;SHT31;53633;49.932;10.884;2022-10-16T06:11:07;15.39;94.29
66722;SHT31;53633;49.932;10.884;2022-10-16T06:13:34;15.39;94.40
66722;SHT31;53633;49.932;10.884;2022-10-16T06:16:03;15.44;94.47
66722;SHT31;53633;49.932;10.884;2022-10-16T06:18:30;15.44;94.32
66722;SHT31;53633;49.932;10.884;2022-10-16T06:20:57;15.44;94.38
66722;SHT31;53633;49.932;10.884;2022-10-16T06:23:24;15.45;94.32
66722;SHT31;53633;49.932;10.884;2022-10-16T06:25:50;15.49;94.12
66722;SHT31;53633;49.932;10.884;2022-10-16T06:28:17;15.51;94.24
66722;SHT31;53633;49.932;10.884;2022-10-16T06:30:44;15.55;94.00
66722;SHT31;53633;49.932;10.884;2022-10-16T06:33:12;15.67;93.44
66722;SHT31;53633;49.932;10.884;2022-10-16T06:35:39;15.82;93.04
66722;SHT31;53633;49.932;10.884;2022-10-16T06:38:05;15.73;93.24
66722;SHT31;53633;49.932;10.884;2022-10-16T06:40:32;15.66;93.22
66722;SHT31;53633;49.932;10.884;2022-10-16T06:42:59;15.76;93.35
66722;SHT31;53633;49.932;10.884;2022-10-16T06:45:25;15.75;93.06
66722;SHT31;53633;49.932;10.884;2022-10-16T06:47:52;15.83;93.01
66722;SHT31;53633;49.932;10.884;2022-10-16T06:50:20;15.79;92.93
66722;SHT31;53633;49.932;10.884;2022-10-16T06:52:47;15.86;93.05
66722;SHT31;53633;49.932;10.884;2022-10-16T06:55:13;15.82;93.23
66722;SHT31;53633;49.932;10.884;2022-10-16T06:57:40;15.85;93.18
66722;SHT31;53633;49.932;10.884;2022-10-16T07:00:07;15.75;93.27
66722;SHT31;53633;49.932;10.884;2022-10-16T07:02:34;15.81;93.45
66722;SHT31;53633;49.932;10.884;2022-10-16T07:05:00;15.76;93.37
66722;SHT31;53633;49.932;10.884;2022-10-16T07:07:28;15.76;93.48
66722;SHT31;53633;49.932;10.884;2022-10-16T07:09:55;15.85;93.37
66722;SHT31;53633;49.932;10.884;2022-10-16T07:12:21;15.90;93.38
66722;SHT31;53633;49.932;10.884;2022-10-16T07:14:49;15.97;92.92
66722;SHT31;53633;49.932;10.884;2022-10-16T07:17:15;16.04;92.74
66722;SHT31;53633;49.932;10.884;2022-10-16T07:19:42;16.13;92.25
66722;SHT31;53633;49.932;10.884;2022-10-16T07:22:08;16.14;92.33
66722;SHT31;53633;49.932;10.884;2022-10-16T07:24:36;16.21;92.07
66722;SHT31;53633;49.932;10.884;2022-10-16T07:27:03;16.18;92.46
66722;SHT31;53633;49.932;10.884;2022-10-16T07:29:29;16.20;92.99
66722;SHT31;53633;49.932;10.884;2022-10-16T07:31:56;16.27;92.52
66722;SHT31;53633;49.932;10.884;2022-10-16T07:34:23;16.28;92.63
66722;SHT31;53633;49.932;10.884;2022-10-16T07:36:50;16.40;92.31
66722;SHT31;53633;49.932;10.884;2022-10-16T07:39:17;16.51;91.55
66722;SHT31;53633;49.932;10.884;2022-10-16T07:41:45;16.57;91.52
66722;SHT31;53633;49.932;10.884;2022-10-16T07:44:11;16.72;91.58
66722;SHT31;53633;49.932;10.884;2022-10-16T07:46:38;16.75;91.36
66722;SHT31;53633;49.932;10.884;2022-10-16T07:49:05;16.73;91.36
66722;SHT31;53633;49.932;10.884;2022-10-16T07:51:31;16.78;90.54
66722;SHT31;53633;49.932;10.884;2022-10-16T07:53:58;16.87;90.67
66722;SHT31;53633;49.932;10.884;2022-10-16T07:56:25;16.90;90.98
66722;SHT31;53633;49.932;10.884;2022-10-16T07:58:53;17.03;90.22
66722;SHT31;53633;49.932;10.884;2022-10-16T08:01:20;16.96;90.15
66722;SHT31;53633;49.932;10.884;2022-10-16T08:03:48;17.02;90.16
66722;SHT31;53633;49.932;10.884;2022-10-16T08:06:15;17.16;89.53
66722;SHT31;53633;49.932;10.884;2022-10-16T08:08:42;17.33;89.86
66722;SHT31;53633;49.932;10.884;2022-10-16T08:11:09;17.57;88.49
66722;SHT31;53633;49.932;10.884;2022-10-16T08:13:36;17.67;87.70
66722;SHT31;53633;49.932;10.884;2022-10-16T08:16:05;17.75;87.90
66722;SHT31;53633;49.932;10.884;2022-10-16T08:18:31;18.05;86.60
66722;SHT31;53633;49.932;10.884;2022-10-16T08:20:59;18.17;87.44
66722;SHT31;53633;49.932;10.884;2022-10-16T08:23:26;18.32;86.07
66722;SHT31;53633;49.932;10.884;2022-10-16T08:25:53;18.63;85.73
66722;SHT31;53633;49.932;10.884;2022-10-16T08:28:21;18.89;84.21
66722;SHT31;53633;49.932;10.884;2022-10-16T08:30:48;19.03;84.13
66722;SHT31;53633;49.932;10.884;2022-10-16T08:33:16;18.71;84.03
66722;SHT31;53633;49.932;10.884;2022-10-16T08:35:42;18.47;84.48
66722;SHT31;53633;49.932;10.884;2022-10-16T08:38:09;18.09;85.39
66722;SHT31;53633;49.932;10.884;2022-10-16T08:40:37;18.13;86.73
66722;SHT31;53633;49.932;10.884;2022-10-16T08:43:18;18.03;86.65
66722;SHT31;53633;49.932;10.884;2022-10-16T08:46:26;17.86;87.12
66722;SHT31;53633;49.932;10.884;2022-10-16T08:48:59;17.78;87.28
66722;SHT31;53633;49.932;10.884;2022-10-16T08:51:28;17.75;87.62
66722;SHT31;53633;49.932;10.884;2022-10-16T08:53:56;17.77;88.23
66722;SHT31;53633;49.932;10.884;2022-10-16T08:56:25;17.71;88.12
66722;SHT31;53633;49.932;10.884;2022-10-16T08:58:52;17.68;88.19
66722;SHT31;53633;49.932;10.884;2022-10-16T09:01:35;17.90;87.70
66722;SHT31;53633;49.932;10.884;2022-10-16T09:04:47;18.00;87.82
66722;SHT31;53633;49.932;10.884;2022-10-16T09:07:26;18.06;86.15
66722;SHT31;53633;49.932;10.884;2022-10-16T09:10:11;18.19;85.99
66722;SHT31;53633;49.932;10.884;2022-10-16T09:12:48;18.16;85.59
66722;SHT31;53633;49.932;10.884;2022-10-16T09:15:27;18.23;85.73
66722;SHT31;53633;49.932;10.884;2022-10-16T09:18:01;18.37;85.86
66722;SHT31;53633;49.932;10.884;2022-10-16T09:20:40;18.51;85.56
66722;SHT31;53633;49.932;10.884;2022-10-16T09:23:17;18.38;85.16
66722;SHT31;53633;49.932;10.884;2022-10-16T09:25:47;18.38;84.97
66722;SHT31;53633;49.932;10.884;2022-10-16T09:28:14;18.30;85.38
66722;SHT31;53633;49.932;10.884;2022-10-16T09:30:41;18.06;85.28
66722;SHT31;53633;49.932;10.884;2022-10-16T09:33:09;18.13;85.47
66722;SHT31;53633;49.932;10.884;2022-10-16T09:35:39;18.23;85.10
66722;SHT31;53633;49.932;10.884;2022-10-16T09:38:07;18.41;84.79
66722;SHT31;53633;49.932;10.884;2022-10-16T09:40:36;18.58;84.87
66722;SHT31;53633;49.932;10.884;2022-10-16T09:43:14;18.63;84.02
66722;SHT31;53633;49.932;10.884;2022-10-16T09:45:43;18.75;84.15
66722;SHT31;53633;49.932;10.884;2022-10-16T09:48:11;18.76;84.27
66722;SHT31;53633;49.932;10.884;2022-10-16T09:50:40;18.71;84.84
66722;SHT31;53633;49.932;10.884;2022-10-16T09:53:11;18.51;84.99
66722;SHT31;53633;49.932;10.884;2022-10-16T09:55:47;18.54;85.52
66722;SHT31;53633;49.932;10.884;2022-10-16T09:58:14;18.61;85.74
66722;SHT31;53633;49.932;10.884;2022-10-16T10:00:41;18.58;85.76
66722;SHT31;53633;49.932;10.884;2022-10-16T10:03:10;18.48;85.06
66722;SHT31;53633;49.932;10.884;2022-10-16T10:05:40;18.45;85.32
66722;SHT31;53633;49.932;10.884;2022-10-16T10:08:15;18.68;85.69
66722;SHT31;53633;49.932;10.884;2022-10-16T10:10:48;18.61;84.82
66722;SHT31;53633;49.932;10.884;2022-10-16T10:13:18;18.81;84.47
66722;SHT31;53633;49.932;10.884;2022-10-16T10:15:45;18.96;84.29
66722;SHT31;53633;49.932;10.884;2022-10-16T10:18:16;18.87;84.29
66722;SHT31;53633;49.932;10.884;2022-10-16T10:20:45;18.69;84.23
66722;SHT31;53633;49.932;10.884;2022-10-16T10:23:21;18.85;84.38
66722;SHT31;53633;49.932;10.884;2022-10-16T10:25:52;18.89;84.12
66722;SHT31;53633;49.932;10.884;2022-10-16T10:28:51;19.19;83.46
66722;SHT31;53633;49.932;10.884;2022-10-16T10:31:21;19.01;82.89
66722;SHT31;53633;49.932;10.884;2022-10-16T10:33:57;19.29;82.71
66722;SHT31;53633;49.932;10.884;2022-10-16T10:36:33;19.39;82.24
66722;SHT31;53633;49.932;10.884;2022-10-16T10:39:02;19.43;82.14
66722;SHT31;53633;49.932;10.884;2022-10-16T10:41:59;19.47;82.13
66722;SHT31;53633;49.932;10.884;2022-10-16T10:44:37;19.49;81.54
66722;SHT31;53633;49.932;10.884;2022-10-16T10:47:14;19.54;81.82
66722;SHT31;53633;49.932;10.884;2022-10-16T10:49:50;19.56;81.56
66722;SHT31;53633;49.932;10.884;2022-10-16T10:52:43;19.63;81.74
66722;SHT31;53633;49.932;10.884;2022-10-16T10:55:20;19.51;81.82
66722;SHT31;53633;49.932;10.884;2022-10-16T10:58:03;19.61;81.53
66722;SHT31;53633;49.932;10.884;2022-10-16T11:00:42;19.70;81.37
66722;SHT31;53633;49.932;10.884;2022-10-16T11:03:23;19.68;81.66
66722;SHT31;53633;49.932;10.884;2022-10-16T11:05:56;19.73;81.66
66722;SHT31;53633;49.932;10.884;2022-10-16T11:08:30;19.81;81.06
66722;SHT31;53633;49.932;10.884;2022-10-16T11:10:59;19.95;81.00
66722;SHT31;53633;49.932;10.884;2022-10-16T11:13:32;19.87;80.50
66722;SHT31;53633;49.932;10.884;2022-10-16T11:16:03;20.12;80.75
66722;SHT31;53633;49.932;10.884;2022-10-16T11:18:42;20.06;80.87
66722;SHT31;53633;49.932;10.884;2022-10-16T11:21:13;20.29;79.96
66722;SHT31;53633;49.932;10.884;2022-10-16T11:23:45;20.22;80.42
66722;SHT31;53633;49.932;10.884;2022-10-16T11:26:19;19.98;80.66
66722;SHT31;53633;49.932;10.884;2022-10-16T11:28:48;19.71;81.46
66722;SHT31;53633;49.932;10.884;2022-10-16T11:31:18;19.57;81.63
66722;SHT31;53633;49.932;10.884;2022-10-16T11:33:49;19.40;83.34
66722;SHT31;53633;49.932;10.884;2022-10-16T11:36:22;19.19;86.15
66722;SHT31;53633;49.932;10.884;2022-10-16T11:38:55;19.06;85.59
66722;SHT31;53633;49.932;10.884;2022-10-16T11:41:27;18.95;85.93
66722;SHT31;53633;49.932;10.884;2022-10-16T11:44:12;18.75;86.92
66722;SHT31;53633;49.932;10.884;2022-10-16T11:46:46;18.71;87.43
66722;SHT31;53633;49.932;10.884;2022-10-16T11:49:36;18.57;89.44
66722;SHT31;53633;49.932;10.884;2022-10-16T11:52:08;18.47;89.50
66722;SHT31;53633;49.932;10.884;2022-10-16T11:54:45;18.14;91.83
66722;SHT31;53633;49.932;10.884;2022-10-16T11:57:17;17.99;94.56
66722;SHT31;53633;49.932;10.884;2022-10-16T11:59:47;18.16;93.71
66722;SHT31;53633;49.932;10.884;2022-10-16T12:02:32;18.37;92.01
66722;SHT31;53633;49.932;10.884;2022-10-16T12:05:06;18.55;91.41
66722;SHT31;53633;49.932;10.884;2022-10-16T12:07:43;18.76;93.69
66722;SHT31;53633;49.932;10.884;2022-10-16T12:10:21;18.99;92.33
66722;SHT31;53633;49.932;10.884;2022-10-16T12:12:53;18.94;92.39
66722;SHT31;53633;49.932;10.884;2022-10-16T12:15:24;19.10;92.18
66722;SHT31;53633;49.932;10.884;2022-10-16T12:18:21;19.26;92.04
66722;SHT31;53633;49.932;10.884;2022-10-16T12:20:54;18.99;90.39
66722;SHT31;53633;49.932;10.884;2022-10-16T12:23:21;19.09;90.48
66722;SHT31;53633;49.932;10.884;2022-10-16T12:25:55;18.95;87.63
66722;SHT31;53633;49.932;10.884;2022-10-16T12:28:26;18.71;88.54
66722;SHT31;53633;49.932;10.884;2022-10-16T12:30:54;18.75;90.11
66722;SHT31;53633;49.932;10.884;2022-10-16T12:33:24;18.78;89.61
66722;SHT31;53633;49.932;10.884;2022-10-16T12:35:52;18.71;89.48
66722;SHT31;53633;49.932;10.884;2022-10-16T12:38:21;18.71;88.81
66722;SHT31;53633;49.932;10.884;2022-10-16T12:40:58;18.64;88.67
66722;SHT31;53633;49.932;10.884;2022-10-16T12:43:44;18.63;88.78
66722;SHT31;53633;49.932;10.884;2022-10-16T12:46:35;18.54;88.43
66722;SHT31;53633;49.932;10.884;2022-10-16T12:49:22;18.54;88.92
66722;SHT31;53633;49.932;10.884;2022-10-16T12:51:49;18.61;89.26
66722;SHT31;53633;49.932;10.884;2022-10-16T12:54:18;18.64;89.33
66722;SHT31;53633;49.932;10.884;2022-10-16T12:56:53;18.72;88.22
66722;SHT31;53633;49.932;10.884;2022-10-16T12:59:31;18.71;87.21
66722;SHT31;53633;49.932;10.884;2022-10-16T13:02:21;18.69;87.43
66722;SHT31;53633;49.932;10.884;2022-10-16T13:05:05;18.75;87.56
66722;SHT31;53633;49.932;10.884;2022-10-16T13:07:48;18.79;87.63
66722;SHT31;53633;49.932;10.884;2022-10-16T13:10:24;18.88;87.94
66722;SHT31;53633;49.932;10.884;2022-10-16T13:13:10;18.91;87.74
66722;SHT31;53633;49.932;10.884;2022-10-16T13:15:58;18.84;86.95
66722;SHT31;53633;49.932;10.884;2022-10-16T13:18:30;18.87;87.17
66722;SHT31;53633;49.932;10.884;2022-10-16T13:21:10;18.81;87.79
66722;SHT31;53633;49.932;10.884;2022-10-16T13:23:44;18.88;86.85
66722;SHT31;53633;49.932;10.884;2022-10-16T13:26:21;18.92;86.53
66722;SHT31;53633;49.932;10.884;2022-10-16T13:28:51;18.98;86.78
66722;SHT31;53633;49.932;10.884;2022-10-16T13:31:20;19.01;86.80
66722;SHT31;53633;49.932;10.884;2022-10-16T13:33:50;19.03;87.32
66722;SHT31;53633;49.932;10.884;2022-10-16T13:36:20;19.06;86.45
66722;SHT31;53633;49.932;10.884;2022-10-16T13:38:47;19.03;86.33
66722;SHT31;53633;49.932;10.884;2022-10-16T13:41:16;18.99;86.64
66722;SHT31;53633;49.932;10.884;2022-10-16T13:43:45;19.05;86.93
66722;SHT31;53633;49.932;10.884;2022-10-16T13:46:16;19.06;86.19
66722;SHT31;53633;49.932;10.884;2022-10-16T13:48:43;19.08;87.50
66722;SHT31;53633;49.932;10.884;2022-10-16T13:51:13;19.15;86.36
66722;SHT31;53633;49.932;10.884;2022-10-16T13:53:40;19.13;86.57
66722;SHT31;53633;49.932;10.884;2022-10-16T13:56:11;19.12;86.22
66722;SHT31;53633;49.932;10.884;2022-10-16T13:58:38;19.16;85.92
66722;SHT31;53633;49.932;10.884;2022-10-16T14:01:06;19.18;86.02
66722;SHT31;53633;49.932;10.884;2022-10-16T14:03:40;19.20;85.82
66722;SHT31;53633;49.932;10.884;2022-10-16T14:06:12;19.26;86.27
66722;SHT31;53633;49.932;10.884;2022-10-16T14:08:42;19.26;85.79
66722;SHT31;53633;49.932;10.884;2022-10-16T14:11:09;19.30;86.04
66722;SHT31;53633;49.932;10.884;2022-10-16T14:13:38;19.31;85.91
66722;SHT31;53633;49.932;10.884;2022-10-16T14:16:08;19.24;86.37
66722;SHT31;53633;49.932;10.884;2022-10-16T14:18:37;19.24;86.29
66722;SHT31;53633;49.932;10.884;2022-10-16T14:21:07;19.23;86.78
66722;SHT31;53633;49.932;10.884;2022-10-16T14:23:39;19.18;86.35
66722;SHT31;53633;49.932;10.884;2022-10-16T14:26:13;19.23;86.03
66722;SHT31;53633;49.932;10.884;2022-10-16T14:28:40;19.24;86.08
66722;SHT31;53633;49.932;10.884;2022-10-16T14:31:25;19.20;85.85
66722;SHT31;53633;49.932;10.884;2022-10-16T14:33:52;19.22;85.63
66722;SHT31;53633;49.932;10.884;2022-10-16T14:36:20;19.16;86.13
66722;SHT31;53633;49.932;10.884;2022-10-16T14:38:52;19.01;86.90
66722;SHT31;53633;49.932;10.884;2022-10-16T14:41:21;18.98;86.91
66722;SHT31;53633;49.932;10.884;2022-10-16T14:43:51;19.01;86.57
66722;SHT31;53633;49.932;10.884;2022-10-16T14:46:21;18.94;86.64
66722;SHT31;53633;49.932;10.884;2022-10-16T14:48:50;18.94;86.78
66722;SHT31;53633;49.932;10.884;2022-10-16T14:51:18;18.99;86.52
66722;SHT31;53633;49.932;10.884;2022-10-16T14:53:46;19.02;86.72
66722;SHT31;53633;49.932;10.884;2022-10-16T14:56:17;19.02;86.92
66722;SHT31;53633;49.932;10.884;2022-10-16T14:58:44;19.03;86.86
66722;SHT31;53633;49.932;10.884;2022-10-16T15:01:11;19.08;86.58
66722;SHT31;53633;49.932;10.884;2022-10-16T15:03:38;19.10;87.06
66722;SHT31;53633;49.932;10.884;2022-10-16T15:06:09;19.13;87.21
66722;SHT31;53633;49.932;10.884;2022-10-16T15:08:36;19.12;87.55
66722;SHT31;53633;49.932;10.884;2022-10-16T15:11:05;19.16;86.94
66722;SHT31;53633;49.932;10.884;2022-10-16T15:13:35;19.18;86.97
66722;SHT31;53633;49.932;10.884;2022-10-16T15:16:02;19.27;86.82
66722;SHT31;53633;49.932;10.884;2022-10-16T15:18:28;19.30;86.30
66722;SHT31;53633;49.932;10.884;2022-10-16T15:21:02;19.30;86.37
66722;SHT31;53633;49.932;10.884;2022-10-16T15:23:29;19.34;86.22
66722;SHT31;53633;49.932;10.884;2022-10-16T15:25:56;19.34;86.15
66722;SHT31;53633;49.932;10.884;2022-10-16T15:28:25;19.37;86.13
66722;SHT31;53633;49.932;10.884;2022-10-16T15:30:53;19.36;86.37
66722;SHT31;53633;49.932;10.884;2022-10-16T15:33:22;19.31;86.04